Aeroporto :
LOGIN :

Iscrizione | Disclaimer

   EN    FR    IT 

 










Sommario :    VFR   VFR Marginale   IFR   IFR Intensivo   IFR Molto Intensivo
Visibilità : 
Base nubi : 
>= 8 km
>= 3000ft
5 / 8 km
1000 / 3000 ft
1500m / 5 km
500 / 1000 ft
800 / 1500m
200 / 500 ft
< 800m
< 200 ft
Simboli :   Temporali  Nebbia  Neve Forte  Precipitazioni Forti  Vento > 20 kt
SIGMETs :   Varie  Temporali  Ghiacco  Turbolenza  Onda orograficha  Ceneri Vulcaniche






- Altitudine del aeroporto : 106 ft
- Codice IATA : XDA


LFBY - Dax Seyresse

ULTIMO METAR :
  • 230830Z AUTO 06004KT 020V130 9999 // ////// 23/17 Q1023

METARs OBSOLETI :
  • 230800Z AUTO 08005KT 050V130 9999 // ////// 21/17 Q1023
  • 230730Z AUTO 08004KT 020V130 9999 // ////// 20/16 Q1023
  • 230700Z AUTO 04003KT 010V070 9999 // ////// 19/16 Q1023
  • 230630Z AUTO VRB02KT 9999 // ////// 18/16 Q1023
  • 230600Z AUTO 05003KT 9999 // ////// 17/16 Q1022
  • 230530Z AUTO VRB02KT 9999 // ////// 16/15 Q1023
  • 230500Z AUTO 05002KT //// // ////// 16/15 Q1022
  • 230430Z AUTO VRB02KT 9999 // ////// 16/14 Q1022
  • 230400Z AUTO VRB02KT 9999 // ////// 16/15 Q1022

Previsioni scadute.



MetMap, La meteo Aeronautica in un colpo d'occhio ! - Copyright ORBIFLY Dicembre 2007 - Disclaimer

ORBIFLY MET'MAP TEAM :

Programmazione e sviluppo : Alexandra Zaïnal
Concezione : Baudouin d'Aumeries
Supporto tecnico e logistico : Manuel Goepfert
Aiuto : Marc-Olivier Méhu
Aiuto per la traduzione : Arnaldo La Scala




FONTI E CREDITI :

   NOAA